Time;durP1;ratioP1;P1;durP2;ratioP2;P2;SDS_P1;SDS_P2;PMS_P1;PMS_P2;Temp;Humidity;BMP_temperature;BMP_pressure;BME280_temperature;BME280_humidity;BME280_pressure;Samples;Min_cycle;Max_cycle;Signal;HPM_P1;HPM_P2
2022/04/10 00:00:48;;;;;;;;;;;;;;;;;;5102290;28;1909;-73
2022/04/10 00:03:14;;;;;;;;;;;;;;;;;;5105432;28;1143;-72
2022/04/10 00:05:39;;;;;;;;;;;;;;;;;;5104820;28;1340;-73
2022/04/10 00:08:05;;;;;;;;;;;;;;;;;;5100574;28;1214;-73
2022/04/10 00:10:30;;;;;;;;;;;;;;;;;;5123507;27;1158;-72
2022/04/10 00:12:56;;;;;;;;;;;;;;;;;;5125246;27;1151;-73
2022/04/10 00:15:21;;;;;;;;;;;;;;;;;;5127224;27;1103;-73
2022/04/10 00:17:46;;;;;;;;;;;;;;;;;;5127264;27;1167;-72
2022/04/10 00:20:12;;;;;;;;;;;;;;;;;;5126619;27;1186;-72
2022/04/10 00:22:41;;;;;;;;;;;;;;;;;;5123692;28;1963;-73
2022/04/10 00:25:07;;;;;;;;;;;;;;;;;;5120984;28;1211;-73
2022/04/10 00:27:33;;;;;;;;;;;;;;;;;;5127379;27;1326;-73
2022/04/10 00:29:59;;;;;;;;;;;;;;;;;;5113304;27;1384;-73
2022/04/10 00:32:27;;;;;;;;;;;;;;;;;;5108623;28;1178;-72
2022/04/10 00:34:52;;;;;;;;;;;;;;;;;;5092320;28;1202;-73
2022/04/10 00:37:18;;;;;;;;;;;;;;;;;;5117342;28;1333;-72
2022/04/10 00:39:43;;;;;;;;;;;;;;;;;;5115011;27;1135;-74
2022/04/10 00:42:09;;;;;;;;;;;;;;;;;;5097917;28;1914;-72
2022/04/10 00:44:34;;;;;;;;;;;;;;;;;;5115345;28;1349;-73
2022/04/10 00:47:00;;;;;;;;;;;;;;;;;;5135798;27;1221;-72
2022/04/10 00:49:25;;;;;;;;;;;;;;;;;;5136864;27;1131;-72
2022/04/10 00:51:52;;;;;;;;;;;;;;;;;;5134877;27;1138;-74
2022/04/10 00:54:19;;;;;;;;;;;;;;;;;;5127277;27;1330;-72
2022/04/10 00:56:45;;;;;;;;;;;;;;;;;;5119843;27;1139;-73
2022/04/10 00:59:11;;;;;;;;;;;;;;;;;;5128203;27;1338;-73
2022/04/10 01:01:37;;;;;;;;;;;;;;;;;;5109516;28;1874;-73
2022/04/10 01:04:03;;;;;;;;;;;;;;;;;;5134991;27;1140;-72
2022/04/10 01:06:29;;;;;;;;;;;;;;;;;;5124553;27;1175;-72
2022/04/10 01:08:57;;;;;;;;;;;;;;;;;;5114205;28;1329;-73
2022/04/10 01:11:23;;;;;;;;;;;;;;;;;;5118213;27;1155;-74
2022/04/10 01:13:48;;;;;;;;;;;;;;;;;;5116947;28;1116;-73
2022/04/10 01:16:13;;;;;;;;;;;;;;;;;;5111182;28;1310;-73
2022/04/10 01:18:40;;;;;;;;;;;;;;;;;;5121039;28;1116;-74
2022/04/10 01:21:05;;;;;;;;;;;;;;;;;;5112672;27;1925;-73
2022/04/10 01:23:31;;;;;;;;;;;;;;;;;;5135770;27;1266;-75
2022/04/10 01:25:56;;;;;;;;;;;;;;;;;;5132877;27;1191;-72
2022/04/10 01:28:21;;;;;;;;;;;;;;;;;;5141252;27;1207;-73
2022/04/10 01:30:49;;;;;;;;;;;;;;;;;;5121659;27;1203;-73
2022/04/10 01:33:15;;;;;;;;;;;;;;;;;;5133830;27;1175;-73
2022/04/10 01:35:40;;;;;;;;;;;;;;;;;;5126063;27;1190;-73
2022/04/10 01:38:06;;;;;;;;;;;;;;;;;;5119269;27;1159;-73
2022/04/10 01:40:31;;;;;;;;;;;;;;;;;;5104942;28;1139;-73
2022/04/10 01:42:56;;;;;;;;;;;;;;;;;;5107833;27;2013;-73
2022/04/10 01:45:22;;;;;;;;;;;;;;;;;;5107000;28;1215;-73
2022/04/10 01:47:51;;;;;;;;;;;;;;;;;;5108165;28;1206;-73
2022/04/10 01:50:17;;;;;;;;;;;;;;;;;;5107716;28;1143;-74
2022/04/10 01:52:42;;;;;;;;;;;;;;;;;;5105145;28;1018;-73
2022/04/10 01:55:10;;;;;;;;;;;;;;;;;;5101180;28;1050;-73
2022/04/10 01:57:36;;;;;;;;;;;;;;;;;;5089941;28;1323;-73
2022/04/10 02:00:01;;;;;;;;;;;;;;;;;;5106771;28;1135;-73
2022/04/10 02:02:26;;;;;;;;;;;;;;;;;;5089867;28;1953;-73
2022/04/10 02:04:52;;;;;;;;;;;;;;;;;;5106685;28;1249;-73
2022/04/10 02:07:17;;;;;;;;;;;;;;;;;;5086295;28;1133;-73
2022/04/10 02:09:43;;;;;;;;;;;;;;;;;;5102647;28;1214;-73
2022/04/10 02:12:08;;;;;;;;;;;;;;;;;;5106953;28;1080;-72
2022/04/10 02:14:33;;;;;;;;;;;;;;;;;;5107543;28;1164;-73
2022/04/10 02:16:59;;;;;;;;;;;;;;;;;;5106185;28;1143;-73
2022/04/10 02:19:24;;;;;;;;;;;;;;;;;;5107430;28;1358;-73
2022/04/10 02:21:54;;;;;;;;;;;;;;;;;;5104665;28;1889;-72
2022/04/10 02:24:23;;;;;;;;;;;;;;;;;;5121800;27;1116;-73
2022/04/10 02:26:49;;;;;;;;;;;;;;;;;;5127232;27;1369;-74
2022/04/10 02:29:15;;;;;;;;;;;;;;;;;;5124540;27;1124;-73
2022/04/10 02:31:40;;;;;;;;;;;;;;;;;;5118582;27;1150;-73
2022/04/10 02:34:05;;;;;;;;;;;;;;;;;;5105052;28;1081;-72
2022/04/10 02:36:31;;;;;;;;;;;;;;;;;;5107626;27;1485;-73
2022/04/10 02:38:57;;;;;;;;;;;;;;;;;;5121987;27;1147;-73
2022/04/10 02:41:22;;;;;;;;;;;;;;;;;;5125268;27;1929;-73
2022/04/10 02:43:47;;;;;;;;;;;;;;;;;;5126375;27;1171;-73
2022/04/10 02:46:13;;;;;;;;;;;;;;;;;;5122381;27;1143;-73
2022/04/10 02:48:38;;;;;;;;;;;;;;;;;;5108505;27;1271;-73
2022/04/10 02:51:03;;;;;;;;;;;;;;;;;;5103699;27;1219;-73
2022/04/10 02:53:29;;;;;;;;;;;;;;;;;;5103770;27;1372;-73
2022/04/10 02:55:54;;;;;;;;;;;;;;;;;;5102546;28;1148;-72
2022/04/10 02:58:20;;;;;;;;;;;;;;;;;;5088171;28;1143;-74
2022/04/10 03:00:46;;;;;;;;;;;;;;;;;;5115657;27;1893;-73
2022/04/10 03:03:11;;;;;;;;;;;;;;;;;;5089104;27;1201;-73
2022/04/10 03:05:36;;;;;;;;;;;;;;;;;;5103744;28;1084;-73
2022/04/10 03:08:02;;;;;;;;;;;;;;;;;;5086047;28;1288;-72
2022/04/10 03:10:28;;;;;;;;;;;;;;;;;;5103504;28;1259;-73
2022/04/10 03:12:53;;;;;;;;;;;;;;;;;;5106988;28;1143;-73
2022/04/10 03:15:19;;;;;;;;;;;;;;;;;;5088222;28;1307;-73
2022/04/10 03:17:44;;;;;;;;;;;;;;;;;;5086373;28;1412;-73
2022/04/10 03:20:11;;;;;;;;;;;;;;;;;;5108800;27;1218;-73
2022/04/10 03:22:37;;;;;;;;;;;;;;;;;;5110833;27;1952;-73
2022/04/10 03:25:02;;;;;;;;;;;;;;;;;;5083512;28;1462;-74
2022/04/10 03:27:27;;;;;;;;;;;;;;;;;;5103767;28;1187;-73
2022/04/10 03:29:56;;;;;;;;;;;;;;;;;;5085930;28;1260;-73
2022/04/10 03:32:21;;;;;;;;;;;;;;;;;;5104951;28;1404;-73
2022/04/10 03:34:47;;;;;;;;;;;;;;;;;;5105249;28;1437;-73
2022/04/10 03:37:12;;;;;;;;;;;;;;;;;;5117308;27;1215;-73
2022/04/10 03:39:37;;;;;;;;;;;;;;;;;;5101762;28;1203;-73
2022/04/10 03:42:03;;;;;;;;;;;;;;;;;;5104797;28;1973;-74
2022/04/10 03:44:28;;;;;;;;;;;;;;;;;;5109586;28;1048;-74
2022/04/10 03:46:54;;;;;;;;;;;;;;;;;;5091928;28;1374;-74
2022/04/10 03:49:23;;;;;;;;;;;;;;;;;;5107814;27;1287;-73
2022/04/10 03:51:48;;;;;;;;;;;;;;;;;;5118959;27;1186;-73
2022/04/10 03:54:13;;;;;;;;;;;;;;;;;;5102668;28;1483;-72
2022/04/10 03:56:38;;;;;;;;;;;;;;;;;;5104242;28;1238;-73
2022/04/10 03:59:04;;;;;;;;;;;;;;;;;;5086302;28;1243;-73
2022/04/10 04:01:29;;;;;;;;;;;;;;;;;;5105456;28;1968;-73
2022/04/10 04:03:55;;;;;;;;;;;;;;;;;;5105719;28;1210;-73
2022/04/10 04:06:21;;;;;;;;;;;;;;;;;;5102818;28;1144;-73
2022/04/10 04:08:46;;;;;;;;;;;;;;;;;;5124666;28;1316;-73
2022/04/10 04:11:11;;;;;;;;;;;;;;;;;;5123723;27;1130;-73
2022/04/10 04:13:40;;;;;;;;;;;;;;;;;;5126886;27;1143;-73
2022/04/10 04:16:06;;;;;;;;;;;;;;;;;;5114896;27;1249;-73
2022/04/10 04:18:32;;;;;;;;;;;;;;;;;;5106901;28;1123;-73
2022/04/10 04:20:57;;;;;;;;;;;;;;;;;;5101015;28;1885;-74
2022/04/10 04:23:23;;;;;;;;;;;;;;;;;;5106745;28;1378;-74
2022/04/10 04:25:48;;;;;;;;;;;;;;;;;;5108666;27;1214;-74
2022/04/10 04:28:14;;;;;;;;;;;;;;;;;;5109698;28;1163;-74
2022/04/10 04:30:39;;;;;;;;;;;;;;;;;;5107744;28;1210;-74
2022/04/10 04:33:04;;;;;;;;;;;;;;;;;;5110223;28;1263;-73
2022/04/10 04:35:31;;;;;;;;;;;;;;;;;;5115852;27;1195;-73
2022/04/10 04:37:57;;;;;;;;;;;;;;;;;;5127445;27;1156;-73
2022/04/10 04:40:24;;;;;;;;;;;;;;;;;;5125020;27;1127;-73
2022/04/10 04:42:49;;;;;;;;;;;;;;;;;;5112003;27;1913;-73
2022/04/10 04:45:14;;;;;;;;;;;;;;;;;;5110009;27;1237;-73
2022/04/10 04:47:39;;;;;;;;;;;;;;;;;;5127362;27;1226;-72
2022/04/10 04:50:06;;;;;;;;;;;;;;;;;;5127975;27;1227;-73
2022/04/10 04:52:31;;;;;;;;;;;;;;;;;;5127502;27;1153;-72
2022/04/10 04:54:57;;;;;;;;;;;;;;;;;;5115992;27;1259;-73
2022/04/10 04:57:22;;;;;;;;;;;;;;;;;;5127595;27;1210;-73
2022/04/10 04:59:47;;;;;;;;;;;;;;;;;;5115080;27;1319;-72
2022/04/10 05:02:13;;;;;;;;;;;;;;;;;;5120025;27;1889;-72
2022/04/10 05:04:38;;;;;;;;;;;;;;;;;;5118940;27;1237;-72
2022/04/10 05:07:06;;;;;;;;;;;;;;;;;;5125186;27;1484;-72
2022/04/10 05:09:31;;;;;;;;;;;;;;;;;;5103632;28;1273;-73
2022/04/10 05:11:56;;;;;;;;;;;;;;;;;;5126335;27;1155;-73
2022/04/10 05:14:22;;;;;;;;;;;;;;;;;;5117054;27;1145;-73
2022/04/10 05:16:47;;;;;;;;;;;;;;;;;;5090238;28;1464;-74
2022/04/10 05:19:12;;;;;;;;;;;;;;;;;;5121542;27;1159;-73
2022/04/10 05:21:37;;;;;;;;;;;;;;;;;;5121786;27;1964;-72
2022/04/10 05:24:11;;;;;;;;;;;;;;;;;;5120406;27;1262;-74
2022/04/10 05:26:37;;;;;;;;;;;;;;;;;;5107659;28;1295;-73
2022/04/10 05:29:03;;;;;;;;;;;;;;;;;;5114059;27;1228;-73
2022/04/10 05:31:30;;;;;;;;;;;;;;;;;;5126876;27;1532;-73
2022/04/10 05:33:55;;;;;;;;;;;;;;;;;;5106502;27;1159;-74
2022/04/10 05:36:21;;;;;;;;;;;;;;;;;;5103889;28;1202;-75
2022/04/10 05:38:48;;;;;;;;;;;;;;;;;;5115202;27;1529;-73
2022/04/10 05:41:14;;;;;;;;;;;;;;;;;;5120339;27;1914;-73
2022/04/10 05:43:39;;;;;;;;;;;;;;;;;;5125926;27;1135;-73
2022/04/10 05:46:12;;;;;;;;;;;;;;;;;;5111453;27;1166;-76
2022/04/10 05:48:37;;;;;;;;;;;;;;;;;;5107585;28;1156;-73
2022/04/10 05:51:03;;;;;;;;;;;;;;;;;;5114470;27;1266;-74
2022/04/10 05:53:28;;;;;;;;;;;;;;;;;;5124385;27;1124;-73
2022/04/10 05:55:53;;;;;;;;;;;;;;;;;;5108611;27;1155;-74
2022/04/10 05:58:18;;;;;;;;;;;;;;;;;;5107399;28;1159;-74
2022/04/10 06:00:43;;;;;;;;;;;;;;;;;;5105970;27;1220;-74
2022/04/10 06:03:09;;;;;;;;;;;;;;;;;;5126701;27;1878;-74
2022/04/10 06:05:34;;;;;;;;;;;;;;;;;;5106757;27;1391;-74
2022/04/10 06:08:01;;;;;;;;;;;;;;;;;;5106180;28;1152;-74
2022/04/10 06:10:26;;;;;;;;;;;;;;;;;;5087226;28;1097;-73
2022/04/10 06:12:52;;;;;;;;;;;;;;;;;;5108232;28;1427;-73
2022/04/10 06:15:20;;;;;;;;;;;;;;;;;;5104472;28;1006;-74
2022/04/10 06:17:46;;;;;;;;;;;;;;;;;;5105552;27;1225;-73
2022/04/10 06:20:11;;;;;;;;;;;;;;;;;;5104927;28;1171;-73
2022/04/10 06:22:37;;;;;;;;;;;;;;;;;;5105123;28;1960;-73
2022/04/10 06:25:11;;;;;;;;;;;;;;;;;;5100105;28;1195;-72
2022/04/10 06:27:37;;;;;;;;;;;;;;;;;;5115045;27;1420;-72
2022/04/10 06:30:03;;;;;;;;;;;;;;;;;;5116982;27;1494;-71
2022/04/10 06:32:28;;;;;;;;;;;;;;;;;;5123005;27;1238;-72
2022/04/10 06:34:53;;;;;;;;;;;;;;;;;;5125741;27;1152;-73
2022/04/10 06:37:19;;;;;;;;;;;;;;;;;;5099564;28;1135;-75
2022/04/10 06:39:47;;;;;;;;;;;;;;;;;;5103458;28;1190;-75
2022/04/10 06:42:13;;;;;;;;;;;;;;;;;;5115664;27;1898;-74
2022/04/10 06:44:40;;;;;;;;;;;;;;;;;;5107539;27;1059;-75
2022/04/10 06:47:05;;;;;;;;;;;;;;;;;;5103541;27;1222;-75
2022/04/10 06:49:30;;;;;;;;;;;;;;;;;;5104266;28;1334;-76
2022/04/10 06:51:56;;;;;;;;;;;;;;;;;;5087923;27;1324;-76
2022/04/10 06:54:21;;;;;;;;;;;;;;;;;;5114424;27;1286;-74
2022/04/10 06:56:46;;;;;;;;;;;;;;;;;;5088802;27;1297;-76
2022/04/10 06:59:14;;;;;;;;;;;;;;;;;;5106779;27;1455;-76
2022/04/10 07:01:39;;;;;;;;;;;;;;;;;;5112674;27;1939;-74
2022/04/10 07:04:05;;;;;;;;;;;;;;;;;;5111018;27;1288;-76
2022/04/10 07:06:30;;;;;;;;;;;;;;;;;;5106755;27;1112;-75
2022/04/10 07:08:57;;;;;;;;;;;;;;;;;;5112904;27;1195;-75
2022/04/10 07:11:22;;;;;;;;;;;;;;;;;;5112281;27;1163;-76
2022/04/10 07:13:47;;;;;;;;;;;;;;;;;;5110732;27;1151;-74
2022/04/10 07:16:13;;;;;;;;;;;;;;;;;;5114665;27;1219;-74
2022/04/10 07:18:39;;;;;;;;;;;;;;;;;;5105004;28;1151;-79
2022/04/10 07:21:04;;;;;;;;;;;;;;;;;;5104357;27;1881;-80
2022/04/10 07:23:41;;;;;;;;;;;;;;;;;;5105750;28;1195;-78
2022/04/10 07:26:09;;;;;;;;;;;;;;;;;;5101756;27;1275;-75
2022/04/10 07:28:34;;;;;;;;;;;;;;;;;;5122072;27;1210;-75
2022/04/10 07:31:00;;;;;;;;;;;;;;;;;;5120150;27;1274;-75
2022/04/10 07:33:26;;;;;;;;;;;;;;;;;;5122136;27;1364;-76
2022/04/10 07:35:51;;;;;;;;;;;;;;;;;;5113822;27;1263;-77
2022/04/10 07:38:21;;;;;;;;;;;;;;;;;;5102844;28;1304;-76
2022/04/10 07:40:46;;;;;;;;;;;;;;;;;;5110442;27;1189;-76
2022/04/10 07:43:11;;;;;;;;;;;;;;;;;;5124946;27;1901;-77
2022/04/10 07:48:26;;;;;;;;;;;;;;;;;;5123950;27;967;-76
2022/04/10 07:50:51;;;;;;;;;;;;;;;;;;5104207;28;1190;-77
2022/04/10 07:53:41;;;;;;;;;;;;;;;;;;5122709;27;1280;-77
2022/04/10 07:56:07;;;;;;;;;;;;;;;;;;5106303;28;1217;-77
2022/04/10 07:58:32;;;;;;;;;;;;;;;;;;5105988;28;1238;-76
2022/04/10 08:00:57;;;;;;;;;;;;;;;;;;5106332;28;1890;-78
2022/04/10 08:03:24;;;;;;;;;;;;;;;;;;5123164;28;1304;-76
2022/04/10 08:05:50;;;;;;;;;;;;;;;;;;5122061;28;1212;-77
2022/04/10 08:08:19;;;;;;;;;;;;;;;;;;5108364;28;1371;-77
2022/04/10 08:10:44;;;;;;;;;;;;;;;;;;5119325;28;1178;-77
2022/04/10 08:13:10;;;;;;;;;;;;;;;;;;5126620;27;1301;-77
2022/04/10 08:15:35;;;;;;;;;;;;;;;;;;5122168;28;1143;-77
2022/04/10 08:18:00;;;;;;;;;;;;;;;;;;5125316;28;1881;-77
2022/04/10 08:20:32;;;;;;;;;;;;;;;;;;5121597;28;1179;-77
2022/04/10 08:22:59;;;;;;;;;;;;;;;;;;5103756;28;1955;-76
2022/04/10 08:25:28;;;;;;;;;;;;;;;;;;5080533;28;1313;-76
2022/04/10 08:27:54;;;;;;;;;;;;;;;;;;5087393;28;1345;-77
2022/04/10 08:30:23;;;;;;;;;;;;;;;;;;5103306;28;1156;-76
2022/04/10 08:32:48;;;;;;;;;;;;;;;;;;5086660;28;1372;-78
2022/04/10 08:35:15;;;;;;;;;;;;;;;;;;5101686;28;1323;-77
2022/04/10 08:37:40;;;;;;;;;;;;;;;;;;5112105;28;1135;-77
2022/04/10 08:40:12;;;;;;;;;;;;;;;;;;5109188;27;1186;-77
2022/04/10 08:42:37;;;;;;;;;;;;;;;;;;5099980;28;1882;-76
2022/04/10 08:45:03;;;;;;;;;;;;;;;;;;5102984;28;1376;-77
2022/04/10 08:47:29;;;;;;;;;;;;;;;;;;5103008;28;1284;-77
2022/04/10 08:49:55;;;;;;;;;;;;;;;;;;5125072;27;1191;-76
2022/04/10 08:52:21;;;;;;;;;;;;;;;;;;5120089;28;1151;-76
2022/04/10 08:54:47;;;;;;;;;;;;;;;;;;5123255;27;1134;-76
2022/04/10 08:57:13;;;;;;;;;;;;;;;;;;5120727;27;1228;-76
2022/04/10 08:59:39;;;;;;;;;;;;;;;;;;5112197;28;1177;-76
2022/04/10 09:02:04;;;;;;;;;;;;;;;;;;5102374;28;1883;-76
2022/04/10 09:04:31;;;;;;;;;;;;;;;;;;5119998;28;1229;-76
2022/04/10 09:07:00;;;;;;;;;;;;;;;;;;5120980;27;1147;-76
2022/04/10 09:09:26;;;;;;;;;;;;;;;;;;5122721;27;1342;-76
2022/04/10 09:11:55;;;;;;;;;;;;;;;;;;5110025;27;1309;-77
2022/04/10 09:14:40;;;;;;;;;;;;;;;;;;5106541;28;1242;-77
2022/04/10 09:17:09;;;;;;;;;;;;;;;;;;5122993;27;1298;-76
2022/04/10 09:19:35;;;;;;;;;;;;;;;;;;5124132;27;1112;-76
2022/04/10 09:22:18;;;;;;;;;;;;;;;;;;5103435;28;1871;-76
2022/04/10 09:25:11;;;;;;;;;;;;;;;;;;5122202;27;1596;-77
2022/04/10 09:27:41;;;;;;;;;;;;;;;;;;5126132;27;1007;-76
2022/04/10 09:30:08;;;;;;;;;;;;;;;;;;5132471;27;1327;-75
2022/04/10 09:32:53;;;;;;;;;;;;;;;;;;5126502;27;1262;-75
2022/04/10 09:35:19;;;;;;;;;;;;;;;;;;5129521;27;1226;-76
2022/04/10 09:37:44;;;;;;;;;;;;;;;;;;5104809;28;1164;-75
2022/04/10 09:40:28;;;;;;;;;;;;;;;;;;5111540;27;1175;-77
2022/04/10 09:43:01;;;;;;;;;;;;;;;;;;5110223;27;1898;-81
2022/04/10 09:45:32;;;;;;;;;;;;;;;;;;5117522;27;1185;-82
2022/04/10 09:48:15;;;;;;;;;;;;;;;;;;5106170;27;1352;-79
2022/04/10 09:50:40;;;;;;;;;;;;;;;;;;5119230;27;1116;-82
2022/04/10 09:53:07;;;;;;;;;;;;;;;;;;5122135;27;1164;-80
2022/04/10 09:55:33;;;;;;;;;;;;;;;;;;5110249;27;1312;-77
2022/04/10 09:57:59;;;;;;;;;;;;;;;;;;5108100;27;1235;-74
2022/04/10 10:00:28;;;;;;;;;;;;;;;;;;5114246;27;1215;-76
2022/04/10 10:02:55;;;;;;;;;;;;;;;;;;5118664;27;1901;-75
2022/04/10 10:05:20;;;;;;;;;;;;;;;;;;5113645;27;1215;-76
2022/04/10 10:07:47;;;;;;;;;;;;;;;;;;5119012;27;1168;-75
2022/04/10 10:10:14;;;;;;;;;;;;;;;;;;5118475;27;1285;-76
2022/04/10 10:12:39;;;;;;;;;;;;;;;;;;5113155;27;1306;-75
2022/04/10 10:15:06;;;;;;;;;;;;;;;;;;5121618;27;1229;-75
2022/04/10 10:17:31;;;;;;;;;;;;;;;;;;5104219;28;1345;-74
2022/04/10 10:19:57;;;;;;;;;;;;;;;;;;5104108;28;1171;-75
2022/04/10 10:22:23;;;;;;;;;;;;;;;;;;5121537;27;1881;-76
2022/04/10 10:24:51;;;;;;;;;;;;;;;;;;5110461;27;1214;-76
2022/04/10 10:27:22;;;;;;;;;;;;;;;;;;5112840;27;1052;-76
2022/04/10 10:30:00;;;;;;;;;;;;;;;;;;5114394;27;1206;-76
2022/04/10 10:32:40;;;;;;;;;;;;;;;;;;5127919;27;1111;-76
2022/04/10 10:35:06;;;;;;;;;;;;;;;;;;5106647;27;1297;-75
2022/04/10 10:37:45;;;;;;;;;;;;;;;;;;5116982;27;1354;-77
2022/04/10 10:40:16;;;;;;;;;;;;;;;;;;5124216;27;1357;-77
2022/04/10 10:42:43;;;;;;;;;;;;;;;;;;5118310;27;1968;-78
2022/04/10 10:45:10;;;;;;;;;;;;;;;;;;5104465;28;1237;-75
2022/04/10 10:47:36;;;;;;;;;;;;;;;;;;5126218;27;1297;-76
2022/04/10 10:50:22;;;;;;;;;;;;;;;;;;5127606;27;1578;-75
2022/04/10 10:53:04;;;;;;;;;;;;;;;;;;5117667;27;1390;-76
2022/04/10 10:55:42;;;;;;;;;;;;;;;;;;5119173;27;1387;-74
2022/04/10 10:58:07;;;;;;;;;;;;;;;;;;5119837;27;1250;-75
2022/04/10 11:00:35;;;;;;;;;;;;;;;;;;5102469;27;1554;-74
2022/04/10 11:03:07;;;;;;;;;;;;;;;;;;5103029;27;1957;-74
2022/04/10 11:05:36;;;;;;;;;;;;;;;;;;5119404;27;1144;-74
2022/04/10 11:08:05;;;;;;;;;;;;;;;;;;5106437;27;1048;-74
2022/04/10 11:10:32;;;;;;;;;;;;;;;;;;5117160;27;1196;-74
2022/04/10 11:13:07;;;;;;;;;;;;;;;;;;5119097;27;1167;-75
2022/04/10 11:15:46;;;;;;;;;;;;;;;;;;5101715;28;1170;-78
2022/04/10 11:18:24;;;;;;;;;;;;;;;;;;5103872;28;1164;-76
2022/04/10 11:20:56;;;;;;;;;;;;;;;;;;5104586;27;1422;-76
2022/04/10 11:23:21;;;;;;;;;;;;;;;;;;5104572;28;1893;-77
2022/04/10 11:25:53;;;;;;;;;;;;;;;;;;5100073;28;1241;-76
2022/04/10 11:28:18;;;;;;;;;;;;;;;;;;5106203;27;1286;-77
2022/04/10 11:30:47;;;;;;;;;;;;;;;;;;5119786;27;1210;-75
2022/04/10 11:33:13;;;;;;;;;;;;;;;;;;5125588;27;1195;-77
2022/04/10 11:35:40;;;;;;;;;;;;;;;;;;5103866;27;1439;-77
2022/04/10 11:38:11;;;;;;;;;;;;;;;;;;5122473;27;1139;-77
2022/04/10 11:40:41;;;;;;;;;;;;;;;;;;5107306;27;1314;-77
2022/04/10 11:43:11;;;;;;;;;;;;;;;;;;5124565;27;2007;-77
2022/04/10 11:45:37;;;;;;;;;;;;;;;;;;5124254;27;1088;-76
2022/04/10 11:48:05;;;;;;;;;;;;;;;;;;5111525;28;1192;-78
2022/04/10 11:50:39;;;;;;;;;;;;;;;;;;5123422;27;1273;-76
2022/04/10 11:53:04;;;;;;;;;;;;;;;;;;5106921;28;1284;-80
2022/04/10 11:55:34;;;;;;;;;;;;;;;;;;5121194;27;1131;-75
2022/04/10 11:58:00;;;;;;;;;;;;;;;;;;5104378;28;1389;-77
2022/04/10 12:00:26;;;;;;;;;;;;;;;;;;5103151;28;1176;-80
2022/04/10 12:02:53;;;;;;;;;;;;;;;;;;5108531;28;1886;-79
2022/04/10 12:05:19;;;;;;;;;;;;;;;;;;5123562;28;1191;-79
2022/04/10 12:07:44;;;;;;;;;;;;;;;;;;5102319;28;1190;-79
2022/04/10 12:10:17;;;;;;;;;;;;;;;;;;5111295;28;1159;-82
2022/04/10 12:12:43;;;;;;;;;;;;;;;;;;5119971;28;1142;-79
2022/04/10 12:15:19;;;;;;;;;;;;;;;;;;5124197;27;1218;-79
2022/04/10 12:17:45;;;;;;;;;;;;;;;;;;5104145;28;1304;-79
2022/04/10 12:20:11;;;;;;;;;;;;;;;;;;5122171;28;1453;-74
2022/04/10 12:22:36;;;;;;;;;;;;;;;;;;5120925;27;1897;-76
2022/04/10 12:25:07;;;;;;;;;;;;;;;;;;5123379;28;1789;-78
2022/04/10 12:27:32;;;;;;;;;;;;;;;;;;5123504;28;1299;-78
2022/04/10 12:29:58;;;;;;;;;;;;;;;;;;5122982;27;1218;-76
2022/04/10 12:32:25;;;;;;;;;;;;;;;;;;5105034;28;1219;-77
2022/04/10 12:34:53;;;;;;;;;;;;;;;;;;5113956;27;1018;-75
2022/04/10 12:37:18;;;;;;;;;;;;;;;;;;5115523;28;1238;-74
2022/04/10 12:39:49;;;;;;;;;;;;;;;;;;5101228;28;1187;-74
2022/04/10 12:42:20;;;;;;;;;;;;;;;;;;5117487;27;1909;-74
2022/04/10 12:44:56;;;;;;;;;;;;;;;;;;5117963;27;1192;-74
2022/04/10 12:47:50;;;;;;;;;;;;;;;;;;5119049;27;1148;-74
2022/04/10 12:50:17;;;;;;;;;;;;;;;;;;5115527;27;1357;-74
2022/04/10 12:52:44;;;;;;;;;;;;;;;;;;5126230;27;1082;-74
2022/04/10 12:55:15;;;;;;;;;;;;;;;;;;5105174;27;1309;-73
2022/04/10 12:57:43;;;;;;;;;;;;;;;;;;5105806;27;1237;-74
2022/04/10 13:00:21;;;;;;;;;;;;;;;;;;5106477;28;1250;-74
2022/04/10 13:02:46;;;;;;;;;;;;;;;;;;5107322;28;1889;-74
2022/04/10 13:05:13;;;;;;;;;;;;;;;;;;5089050;28;1312;-75
2022/04/10 13:07:52;;;;;;;;;;;;;;;;;;5103504;28;1167;-74
2022/04/10 13:10:17;;;;;;;;;;;;;;;;;;5103645;28;1314;-74
2022/04/10 13:12:43;;;;;;;;;;;;;;;;;;5088224;28;1321;-75
2022/04/10 13:15:12;;;;;;;;;;;;;;;;;;5106481;28;1211;-75
2022/04/10 13:17:42;;;;;;;;;;;;;;;;;;5124016;27;1475;-75
2022/04/10 13:20:09;;;;;;;;;;;;;;;;;;5126173;27;1347;-73
2022/04/10 13:22:35;;;;;;;;;;;;;;;;;;5127750;27;1897;-73
2022/04/10 13:25:02;;;;;;;;;;;;;;;;;;5125247;27;1321;-73
2022/04/10 13:27:28;;;;;;;;;;;;;;;;;;5124873;27;1303;-73
2022/04/10 13:29:53;;;;;;;;;;;;;;;;;;5125332;27;1137;-74
2022/04/10 13:32:18;;;;;;;;;;;;;;;;;;5109218;27;1319;-73
2022/04/10 13:34:45;;;;;;;;;;;;;;;;;;5125399;27;1308;-75
2022/04/10 13:37:10;;;;;;;;;;;;;;;;;;5123421;27;1166;-75
2022/04/10 13:39:36;;;;;;;;;;;;;;;;;;5108965;27;1303;-75
2022/04/10 13:42:02;;;;;;;;;;;;;;;;;;5124100;27;1910;-73
2022/04/10 13:44:27;;;;;;;;;;;;;;;;;;5128698;27;1100;-73
2022/04/10 13:46:53;;;;;;;;;;;;;;;;;;5124107;27;1171;-74
2022/04/10 13:49:18;;;;;;;;;;;;;;;;;;5128586;27;1242;-73
2022/04/10 13:51:52;;;;;;;;;;;;;;;;;;5096983;28;1156;-74
2022/04/10 13:54:17;;;;;;;;;;;;;;;;;;5122408;27;1207;-74
2022/04/10 13:56:44;;;;;;;;;;;;;;;;;;5122451;27;1361;-75
2022/04/10 13:59:09;;;;;;;;;;;;;;;;;;5109219;27;1233;-75
2022/04/10 14:01:35;;;;;;;;;;;;;;;;;;5125988;27;1960;-74
2022/04/10 14:04:01;;;;;;;;;;;;;;;;;;5125024;27;1091;-75
2022/04/10 14:06:26;;;;;;;;;;;;;;;;;;5108450;27;1365;-75
2022/04/10 14:08:51;;;;;;;;;;;;;;;;;;5121710;27;1159;-73
2022/04/10 14:11:17;;;;;;;;;;;;;;;;;;5122901;27;1277;-72
2022/04/10 14:13:42;;;;;;;;;;;;;;;;;;5125883;27;1137;-73
2022/04/10 14:16:07;;;;;;;;;;;;;;;;;;5124655;27;1139;-73
2022/04/10 14:18:32;;;;;;;;;;;;;;;;;;5128440;27;1279;-73
2022/04/10 14:20:58;;;;;;;;;;;;;;;;;;5125118;27;1210;-73
2022/04/10 14:23:23;;;;;;;;;;;;;;;;;;5109241;27;1897;-75
2022/04/10 14:25:52;;;;;;;;;;;;;;;;;;5119416;27;1299;-76
2022/04/10 14:28:17;;;;;;;;;;;;;;;;;;5127116;27;1218;-74
2022/04/10 14:30:42;;;;;;;;;;;;;;;;;;5103299;27;1181;-74
2022/04/10 14:33:07;;;;;;;;;;;;;;;;;;5104204;28;1121;-75
2022/04/10 14:35:42;;;;;;;;;;;;;;;;;;5104476;28;1091;-75
2022/04/10 14:38:07;;;;;;;;;;;;;;;;;;5122396;27;991;-75
2022/04/10 14:40:32;;;;;;;;;;;;;;;;;;5110798;27;1175;-74
2022/04/10 14:42:58;;;;;;;;;;;;;;;;;;5123799;27;1890;-73
2022/04/10 14:45:23;;;;;;;;;;;;;;;;;;5124926;27;1135;-74
2022/04/10 14:47:49;;;;;;;;;;;;;;;;;;5126980;27;1084;-73
2022/04/10 14:50:16;;;;;;;;;;;;;;;;;;5124072;27;1226;-75
2022/04/10 14:52:41;;;;;;;;;;;;;;;;;;5124542;27;1170;-75
2022/04/10 14:55:07;;;;;;;;;;;;;;;;;;5120753;27;1204;-74
2022/04/10 14:57:33;;;;;;;;;;;;;;;;;;5125009;27;1490;-74
2022/04/10 14:59:58;;;;;;;;;;;;;;;;;;5124092;27;1210;-74
2022/04/10 15:02:25;;;;;;;;;;;;;;;;;;5106124;27;1943;-73
2022/04/10 15:04:53;;;;;;;;;;;;;;;;;;5125844;27;1241;-74
2022/04/10 15:07:19;;;;;;;;;;;;;;;;;;5106826;27;1250;-75
2022/04/10 15:09:45;;;;;;;;;;;;;;;;;;5124650;27;1298;-75
2022/04/10 15:12:11;;;;;;;;;;;;;;;;;;5104226;27;1382;-74
2022/04/10 15:14:36;;;;;;;;;;;;;;;;;;5127656;27;1201;-75
2022/04/10 15:17:02;;;;;;;;;;;;;;;;;;5123523;27;1202;-75
2022/04/10 15:19:27;;;;;;;;;;;;;;;;;;5126235;27;1171;-76
2022/04/10 15:21:55;;;;;;;;;;;;;;;;;;5120117;27;1901;-76
2022/04/10 15:24:20;;;;;;;;;;;;;;;;;;5124337;27;1333;-76
2022/04/10 15:26:46;;;;;;;;;;;;;;;;;;5120371;27;1299;-75
2022/04/10 15:29:14;;;;;;;;;;;;;;;;;;5107522;27;1288;-74
2022/04/10 15:31:39;;;;;;;;;;;;;;;;;;5126232;27;1151;-74
2022/04/10 15:34:05;;;;;;;;;;;;;;;;;;5126661;27;1298;-73
2022/04/10 15:36:30;;;;;;;;;;;;;;;;;;5122911;27;1175;-73
2022/04/10 15:38:55;;;;;;;;;;;;;;;;;;5121723;27;1136;-74
2022/04/10 15:41:21;;;;;;;;;;;;;;;;;;5105591;27;1968;-75
2022/04/10 15:43:46;;;;;;;;;;;;;;;;;;5088736;28;1525;-75
2022/04/10 15:46:11;;;;;;;;;;;;;;;;;;5103469;28;1547;-75
2022/04/10 15:48:37;;;;;;;;;;;;;;;;;;5087322;28;1390;-75
2022/04/10 15:51:03;;;;;;;;;;;;;;;;;;5100030;28;1371;-75
2022/04/10 15:53:29;;;;;;;;;;;;;;;;;;5105876;28;1297;-75
2022/04/10 15:55:55;;;;;;;;;;;;;;;;;;5082819;28;1255;-75
2022/04/10 15:58:20;;;;;;;;;;;;;;;;;;5087725;28;1116;-75
2022/04/10 16:00:46;;;;;;;;;;;;;;;;;;5086149;28;1201;-75
2022/04/10 16:03:11;;;;;;;;;;;;;;;;;;5103843;28;1894;-74
2022/04/10 16:05:38;;;;;;;;;;;;;;;;;;5101631;28;959;-75
2022/04/10 16:08:03;;;;;;;;;;;;;;;;;;5105120;28;896;-75
2022/04/10 16:10:28;;;;;;;;;;;;;;;;;;5081885;28;1343;-73
2022/04/10 16:12:55;;;;;;;;;;;;;;;;;;5105034;28;1139;-73
2022/04/10 16:15:22;;;;;;;;;;;;;;;;;;5085313;28;1168;-73
2022/04/10 16:17:47;;;;;;;;;;;;;;;;;;5118876;27;1175;-74
2022/04/10 16:20:14;;;;;;;;;;;;;;;;;;5126878;27;1020;-74
2022/04/10 16:22:43;;;;;;;;;;;;;;;;;;5125961;27;1889;-75
2022/04/10 16:25:10;;;;;;;;;;;;;;;;;;5107193;27;1249;-75
2022/04/10 16:30:19;;;;;;;;;;;;;;;;;;5127182;27;1007;-74
2022/04/10 16:32:48;;;;;;;;;;;;;;;;;;5098285;28;1179;-74
2022/04/10 16:35:17;;;;;;;;;;;;;;;;;;5106123;28;1202;-73
2022/04/10 16:37:43;;;;;;;;;;;;;;;;;;5108159;27;1304;-76
2022/04/10 16:40:11;;;;;;;;;;;;;;;;;;5123539;27;1207;-75
2022/04/10 16:42:38;;;;;;;;;;;;;;;;;;5126893;27;1913;-75
2022/04/10 16:45:04;;;;;;;;;;;;;;;;;;5119970;27;1159;-75
2022/04/10 16:47:29;;;;;;;;;;;;;;;;;;5107900;28;1119;-76
2022/04/10 16:49:55;;;;;;;;;;;;;;;;;;5108465;28;1087;-76
2022/04/10 16:52:21;;;;;;;;;;;;;;;;;;5102591;28;1362;-75
2022/04/10 16:54:47;;;;;;;;;;;;;;;;;;5109881;27;1329;-75
2022/04/10 16:57:13;;;;;;;;;;;;;;;;;;5126621;27;834;-74
2022/04/10 16:59:38;;;;;;;;;;;;;;;;;;5128990;27;1452;-75
2022/04/10 17:02:03;;;;;;;;;;;;;;;;;;5107732;27;1886;-77
2022/04/10 17:04:30;;;;;;;;;;;;;;;;;;5128303;27;826;-74
2022/04/10 17:06:55;;;;;;;;;;;;;;;;;;5133876;27;833;-75